Time;durP1;ratioP1;P1;durP2;ratioP2;P2;SDS_P1;SDS_P2;PMS_P1;PMS_P2;Temp;Humidity;BMP_temperature;BMP_pressure;BME280_temperature;BME280_humidity;BME280_pressure;Samples;Min_cycle;Max_cycle;Signal;HPM_P1;HPM_P2
2022/09/06 00:00:48;;;;;;;0.60;0.60;;;;;;;;;;5053763;28;20237;-91
2022/09/06 00:03:17;;;;;;;0.40;0.40;;;;;;;;;;5064118;28;20297;-92
2022/09/06 00:05:44;;;;;;;0.40;0.40;;;;;;;;;;5057984;28;20807;-90
2022/09/06 00:08:11;;;;;;;0.30;0.30;;;;;;;;;;5053785;28;20682;-91
2022/09/06 00:10:38;;;;;;;0.30;0.30;;;;;;;;;;5053364;28;20238;-90
2022/09/06 00:13:06;;;;;;;0.60;0.60;;;;;;;;;;5053493;28;20234;-91
2022/09/06 00:15:33;;;;;;;0.30;0.30;;;;;;;;;;5053027;28;20237;-92
2022/09/06 00:18:03;;;;;;;0.40;0.40;;;;;;;;;;5053738;28;20217;-90
2022/09/06 00:20:30;;;;;;;0.87;0.40;;;;;;;;;;5053018;28;20237;-90
2022/09/06 00:22:58;;;;;;;0.50;0.50;;;;;;;;;;5053533;28;20221;-90
2022/09/06 00:25:25;;;;;;;0.67;0.67;;;;;;;;;;5053842;28;20594;-90
2022/09/06 00:27:56;;;;;;;0.30;0.30;;;;;;;;;;5055636;28;20212;-90
2022/09/06 00:30:24;;;;;;;0.30;0.30;;;;;;;;;;5054682;28;20234;-90
2022/09/06 00:32:51;;;;;;;0.67;0.67;;;;;;;;;;5054021;28;20206;-90
2022/09/06 00:35:20;;;;;;;0.27;0.27;;;;;;;;;;5053337;28;20256;-90
2022/09/06 00:37:48;;;;;;;0.40;0.40;;;;;;;;;;5053867;28;20626;-89
2022/09/06 00:40:15;;;;;;;0.40;0.40;;;;;;;;;;5052855;28;20701;-90
2022/09/06 00:42:42;;;;;;;0.53;0.53;;;;;;;;;;5053178;28;20233;-90
2022/09/06 00:45:10;;;;;;;0.47;0.47;;;;;;;;;;5052800;28;20715;-90
2022/09/06 00:47:38;;;;;;;0.50;0.50;;;;;;;;;;5052471;28;20213;-91
2022/09/06 00:50:06;;;;;;;0.30;0.30;;;;;;;;;;5053105;28;20241;-90
2022/09/06 00:52:35;;;;;;;0.63;0.63;;;;;;;;;;5053212;28;20206;-90
2022/09/06 00:55:03;;;;;;;0.30;0.30;;;;;;;;;;5052517;28;20241;-90
2022/09/06 00:57:31;;;;;;;0.30;0.30;;;;;;;;;;5053988;28;20655;-90
2022/09/06 00:59:59;;;;;;;0.40;0.40;;;;;;;;;;5052518;28;20242;-90
2022/09/06 01:02:26;;;;;;;0.87;0.50;;;;;;;;;;5052751;28;20237;-90
2022/09/06 01:04:53;;;;;;;0.57;0.57;;;;;;;;;;5052730;28;20249;-90
2022/09/06 01:07:26;;;;;;;0.33;0.33;;;;;;;;;;5052719;28;20588;-91
2022/09/06 01:10:02;;;;;;;0.40;0.40;;;;;;;;;;5052619;28;20241;-90
2022/09/06 01:12:36;;;;;;;0.30;0.30;;;;;;;;;;5052920;28;20737;-90
2022/09/06 01:15:09;;;;;;;0.50;0.50;;;;;;;;;;5052493;28;20766;-90
2022/09/06 01:17:43;;;;;;;0.47;0.47;;;;;;;;;;5053290;28;20197;-90
2022/09/06 01:20:19;;;;;;;0.67;0.67;;;;;;;;;;5052507;28;20238;-90
2022/09/06 01:23:00;;;;;;;0.40;0.40;;;;;;;;;;5052506;28;20228;-90
2022/09/06 01:25:35;;;;;;;0.30;0.30;;;;;;;;;;5052358;28;20744;-90
2022/09/06 01:28:12;;;;;;;0.30;0.30;;;;;;;;;;5054960;28;20205;-91
2022/09/06 01:30:44;;;;;;;0.50;0.50;;;;;;;;;;5052443;28;20244;-91
2022/09/06 01:33:15;;;;;;;0.43;0.43;;;;;;;;;;5052742;28;20217;-89
2022/09/06 01:35:44;;;;;;;0.43;0.43;;;;;;;;;;5052553;28;20240;-91
2022/09/06 01:38:11;;;;;;;0.40;0.40;;;;;;;;;;5053235;28;20623;-90
2022/09/06 01:40:38;;;;;;;0.70;0.70;;;;;;;;;;5052478;28;20244;-90
2022/09/06 01:43:09;;;;;;;0.40;0.40;;;;;;;;;;5052815;28;20313;-90
2022/09/06 01:45:42;;;;;;;0.97;0.97;;;;;;;;;;5052362;28;20226;-90
2022/09/06 01:48:11;;;;;;;0.40;0.40;;;;;;;;;;5053042;28;20289;-90
2022/09/06 01:50:53;;;;;;;0.40;0.40;;;;;;;;;;5052436;28;20701;-91
2022/09/06 01:53:32;;;;;;;0.40;0.40;;;;;;;;;;5052789;28;20232;-91
2022/09/06 01:56:02;;;;;;;0.60;0.60;;;;;;;;;;5052352;28;20233;-91
2022/09/06 01:58:39;;;;;;;0.60;0.60;;;;;;;;;;5055009;28;20209;-90
2022/09/06 02:01:11;;;;;;;0.80;0.63;;;;;;;;;;5056827;28;20233;-89
2022/09/06 02:03:42;;;;;;;0.40;0.40;;;;;;;;;;5057417;28;20238;-89
2022/09/06 02:06:13;;;;;;;0.47;0.47;;;;;;;;;;5062820;28;20240;-90
2022/09/06 02:08:43;;;;;;;0.40;0.40;;;;;;;;;;5059791;28;20278;-91
2022/09/06 02:11:10;;;;;;;0.63;0.63;;;;;;;;;;5057197;28;20321;-91
2022/09/06 02:16:08;;;;;;;0.30;0.30;;;;;;;;;;5100240;22;20232;-88
2022/09/06 02:18:38;;;;;;;0.47;0.47;;;;;;;;;;5084145;28;20204;-88
2022/09/06 02:21:07;;;;;;;0.40;0.40;;;;;;;;;;5095343;28;20232;-87
2022/09/06 02:23:37;;;;;;;0.57;0.57;;;;;;;;;;5095810;28;20225;-88
2022/09/06 02:26:06;;;;;;;0.70;0.60;;;;;;;;;;5093028;27;20653;-87
2022/09/06 02:28:33;;;;;;;0.40;0.40;;;;;;;;;;5084015;28;20208;-88
2022/09/06 02:31:02;;;;;;;0.50;0.50;;;;;;;;;;5086241;27;20229;-88
2022/09/06 02:33:32;;;;;;;0.40;0.40;;;;;;;;;;5075314;28;20209;-87
2022/09/06 02:36:03;;;;;;;0.40;0.40;;;;;;;;;;5074732;28;20248;-88
2022/09/06 02:38:32;;;;;;;0.30;0.30;;;;;;;;;;5075350;28;20634;-88
2022/09/06 02:40:59;;;;;;;0.40;0.40;;;;;;;;;;5091218;28;20224;-87
2022/09/06 02:43:27;;;;;;;0.37;0.37;;;;;;;;;;5095645;28;20220;-88
2022/09/06 02:45:54;;;;;;;0.40;0.40;;;;;;;;;;5095274;27;20240;-86
2022/09/06 02:48:21;;;;;;;0.30;0.30;;;;;;;;;;5090749;28;20563;-88
2022/09/06 02:50:49;;;;;;;0.47;0.47;;;;;;;;;;5074892;28;20283;-87
2022/09/06 02:53:16;;;;;;;0.40;0.40;;;;;;;;;;5075158;28;20212;-88
2022/09/06 02:55:43;;;;;;;0.60;0.60;;;;;;;;;;5074355;28;20241;-88
2022/09/06 02:58:11;;;;;;;0.40;0.40;;;;;;;;;;5081645;28;20208;-87
2022/09/06 03:00:38;;;;;;;0.33;0.33;;;;;;;;;;5092031;27;20633;-88
2022/09/06 03:03:05;;;;;;;0.30;0.30;;;;;;;;;;5074691;28;20232;-88
2022/09/06 03:05:33;;;;;;;0.43;0.43;;;;;;;;;;5074758;28;20237;-88
2022/09/06 03:08:02;;;;;;;0.30;0.30;;;;;;;;;;5075035;28;20217;-88
2022/09/06 03:10:29;;;;;;;0.30;0.30;;;;;;;;;;5073851;28;20233;-87
2022/09/06 03:12:56;;;;;;;0.30;0.30;;;;;;;;;;5074852;28;20570;-88
2022/09/06 03:15:23;;;;;;;0.30;0.30;;;;;;;;;;5074437;28;20241;-88
2022/09/06 03:17:50;;;;;;;0.20;0.20;;;;;;;;;;5090632;28;20209;-88
2022/09/06 03:20:17;;;;;;;0.30;0.30;;;;;;;;;;5076382;28;20241;-87
2022/09/06 03:22:44;;;;;;;0.40;0.40;;;;;;;;;;5085337;28;20645;-87
2022/09/06 03:25:12;;;;;;;0.40;0.40;;;;;;;;;;5073728;28;20241;-87
2022/09/06 03:27:39;;;;;;;0.30;0.30;;;;;;;;;;5074419;28;20212;-87
2022/09/06 03:30:07;;;;;;;0.22;0.22;;;;;;;;;;5073819;28;20241;-88
2022/09/06 03:32:34;;;;;;;0.50;0.50;;;;;;;;;;5074214;28;20194;-88
2022/09/06 03:35:01;;;;;;;0.40;0.40;;;;;;;;;;5073477;28;20669;-86
2022/09/06 03:37:28;;;;;;;0.30;0.30;;;;;;;;;;5073830;28;20657;-87
2022/09/06 03:39:55;;;;;;;0.30;0.30;;;;;;;;;;5073591;28;20236;-87
2022/09/06 03:42:25;;;;;;;0.30;0.30;;;;;;;;;;5074336;28;20205;-88
2022/09/06 03:44:53;;;;;;;0.30;0.30;;;;;;;;;;5073158;28;20239;-88
2022/09/06 03:47:20;;;;;;;0.20;0.20;;;;;;;;;;5074213;28;20240;-89
2022/09/06 03:49:47;;;;;;;0.50;0.50;;;;;;;;;;5073319;28;20237;-89
2022/09/06 03:52:14;;;;;;;0.30;0.30;;;;;;;;;;5073247;28;20240;-88
2022/09/06 03:54:41;;;;;;;0.47;0.47;;;;;;;;;;5073027;28;20232;-89
2022/09/06 03:57:08;;;;;;;0.30;0.30;;;;;;;;;;5073187;28;20217;-89
2022/09/06 03:59:37;;;;;;;0.43;0.32;;;;;;;;;;5073155;28;20577;-90
2022/09/06 04:02:05;;;;;;;0.32;0.32;;;;;;;;;;5073793;28;20213;-88
2022/09/06 04:04:32;;;;;;;0.40;0.40;;;;;;;;;;5072706;28;20621;-89
2022/09/06 04:07:00;;;;;;;0.50;0.50;;;;;;;;;;5073442;28;20213;-89
2022/09/06 04:09:27;;;;;;;0.50;0.50;;;;;;;;;;5073133;28;20233;-89
2022/09/06 04:11:54;;;;;;;0.60;0.60;;;;;;;;;;5073461;28;20221;-89
2022/09/06 04:14:21;;;;;;;0.28;0.28;;;;;;;;;;5072862;28;20233;-89
2022/09/06 04:16:49;;;;;;;0.40;0.40;;;;;;;;;;5073111;28;20205;-88
2022/09/06 04:19:16;;;;;;;0.40;0.40;;;;;;;;;;5072964;28;20229;-88
2022/09/06 04:21:43;;;;;;;0.50;0.50;;;;;;;;;;5073270;28;20216;-88
2022/09/06 04:24:10;;;;;;;0.40;0.40;;;;;;;;;;5072193;28;20707;-87
2022/09/06 04:26:37;;;;;;;0.52;0.52;;;;;;;;;;5072739;28;20205;-88
2022/09/06 04:29:05;;;;;;;0.65;0.65;;;;;;;;;;5072357;28;20709;-88
2022/09/06 04:31:32;;;;;;;0.30;0.30;;;;;;;;;;5073025;28;20621;-88
2022/09/06 04:34:00;;;;;;;0.40;0.40;;;;;;;;;;5072512;28;20209;-88
2022/09/06 04:36:28;;;;;;;0.40;0.40;;;;;;;;;;5073057;28;20205;-88
2022/09/06 04:38:55;;;;;;;0.63;0.63;;;;;;;;;;5072353;28;20660;-88
2022/09/06 04:41:22;;;;;;;0.40;0.40;;;;;;;;;;5072587;28;20565;-88
2022/09/06 04:43:49;;;;;;;0.40;0.40;;;;;;;;;;5072361;28;20700;-88
2022/09/06 04:46:20;;;;;;;0.38;0.38;;;;;;;;;;5073131;28;20201;-89
2022/09/06 04:48:47;;;;;;;0.32;0.32;;;;;;;;;;5073066;28;20673;-88
2022/09/06 04:51:15;;;;;;;0.83;0.70;;;;;;;;;;5072759;28;20209;-88
2022/09/06 04:53:42;;;;;;;0.50;0.50;;;;;;;;;;5072547;28;20772;-88
2022/09/06 04:56:12;;;;;;;0.40;0.40;;;;;;;;;;5072187;28;20236;-88
2022/09/06 04:58:39;;;;;;;0.40;0.40;;;;;;;;;;5072954;28;20200;-88
2022/09/06 05:01:06;;;;;;;0.30;0.30;;;;;;;;;;5070901;28;20225;-89
2022/09/06 05:03:34;;;;;;;0.30;0.30;;;;;;;;;;5063444;28;20230;-88
2022/09/06 05:06:05;;;;;;;0.40;0.40;;;;;;;;;;5072368;28;20235;-88
2022/09/06 05:08:34;;;;;;;0.40;0.40;;;;;;;;;;5073454;28;20224;-89
2022/09/06 05:11:01;;;;;;;0.80;0.80;;;;;;;;;;5072329;28;20316;-87
2022/09/06 05:13:28;;;;;;;0.30;0.30;;;;;;;;;;5073099;28;20209;-87
2022/09/06 05:15:55;;;;;;;0.38;0.38;;;;;;;;;;5072253;28;20245;-87
2022/09/06 05:18:22;;;;;;;0.40;0.40;;;;;;;;;;5072993;28;20571;-85
2022/09/06 05:20:52;;;;;;;0.55;0.55;;;;;;;;;;5072217;28;20642;-86
2022/09/06 05:23:19;;;;;;;0.33;0.33;;;;;;;;;;5072779;28;20225;-86
2022/09/06 05:25:47;;;;;;;0.70;0.70;;;;;;;;;;5072758;28;20237;-86
2022/09/06 05:28:15;;;;;;;0.70;0.70;;;;;;;;;;5073612;28;20223;-84
2022/09/06 05:30:43;;;;;;;0.80;0.75;;;;;;;;;;5072426;28;20245;-84
2022/09/06 05:33:11;;;;;;;0.52;0.50;;;;;;;;;;5075248;28;20185;-84
2022/09/06 05:35:38;;;;;;;0.30;0.30;;;;;;;;;;5076714;28;20240;-85
2022/09/06 05:38:05;;;;;;;0.40;0.40;;;;;;;;;;5077044;28;20202;-85
2022/09/06 05:40:32;;;;;;;0.33;0.33;;;;;;;;;;5077313;28;20236;-86
2022/09/06 05:43:01;;;;;;;0.38;0.38;;;;;;;;;;5076473;28;20213;-86
2022/09/06 05:45:28;;;;;;;0.70;0.70;;;;;;;;;;5074954;28;20241;-86
2022/09/06 05:47:56;;;;;;;0.60;0.60;;;;;;;;;;5076478;28;20247;-86
2022/09/06 05:50:23;;;;;;;0.40;0.30;;;;;;;;;;5075573;28;20237;-86
2022/09/06 05:52:50;;;;;;;0.50;0.50;;;;;;;;;;5076098;28;20263;-86
2022/09/06 05:55:17;;;;;;;0.40;0.40;;;;;;;;;;5075636;28;20248;-86
2022/09/06 05:57:44;;;;;;;0.50;0.50;;;;;;;;;;5076982;28;20208;-85
2022/09/06 06:00:13;;;;;;;0.30;0.30;;;;;;;;;;5093568;28;20243;-85
2022/09/06 06:02:40;;;;;;;0.25;0.25;;;;;;;;;;5095598;28;20197;-85
2022/09/06 06:05:08;;;;;;;0.37;0.37;;;;;;;;;;5094944;28;20229;-84
2022/09/06 06:07:35;;;;;;;0.30;0.30;;;;;;;;;;5078340;28;20209;-86
2022/09/06 06:10:03;;;;;;;0.30;0.30;;;;;;;;;;5075756;28;20245;-87
2022/09/06 06:12:30;;;;;;;0.40;0.40;;;;;;;;;;5076135;28;20197;-84
2022/09/06 06:14:57;;;;;;;0.38;0.38;;;;;;;;;;5075787;28;20692;-87
2022/09/06 06:17:26;;;;;;;0.50;0.50;;;;;;;;;;5076177;28;20216;-85
2022/09/06 06:19:53;;;;;;;0.30;0.30;;;;;;;;;;5076638;28;20233;-85
2022/09/06 06:22:20;;;;;;;0.40;0.40;;;;;;;;;;5075055;28;20209;-85
2022/09/06 06:24:47;;;;;;;0.50;0.50;;;;;;;;;;5074716;28;20237;-85
2022/09/06 06:27:14;;;;;;;0.40;0.40;;;;;;;;;;5075481;28;20216;-85
2022/09/06 06:29:42;;;;;;;0.22;0.22;;;;;;;;;;5074780;28;20700;-86
2022/09/06 06:32:09;;;;;;;0.50;0.50;;;;;;;;;;5074837;28;20201;-86
2022/09/06 06:34:37;;;;;;;0.38;0.38;;;;;;;;;;5074709;28;20237;-86
2022/09/06 06:37:04;;;;;;;0.63;0.63;;;;;;;;;;5075364;28;20296;-86
2022/09/06 06:39:31;;;;;;;0.28;0.28;;;;;;;;;;5074841;28;20259;-86
2022/09/06 06:41:59;;;;;;;0.30;0.30;;;;;;;;;;5075454;28;20561;-86
2022/09/06 06:44:26;;;;;;;0.32;0.32;;;;;;;;;;5073528;28;20246;-87
2022/09/06 06:46:56;;;;;;;0.55;0.50;;;;;;;;;;5072718;28;20324;-87
2022/09/06 06:49:23;;;;;;;0.30;0.30;;;;;;;;;;5082020;27;20577;-86
2022/09/06 06:51:52;;;;;;;0.30;0.30;;;;;;;;;;5094720;28;20207;-86
2022/09/06 06:54:19;;;;;;;0.30;0.30;;;;;;;;;;5094326;27;20257;-85
2022/09/06 06:56:46;;;;;;;0.32;0.32;;;;;;;;;;5094903;28;20192;-86
2022/09/06 06:59:14;;;;;;;0.50;0.50;;;;;;;;;;5079483;28;20237;-85
2022/09/06 07:01:41;;;;;;;0.20;0.20;;;;;;;;;;5054340;28;20205;-86
2022/09/06 07:04:10;;;;;;;0.30;0.30;;;;;;;;;;5053855;28;20689;-87
2022/09/06 07:06:49;;;;;;;0.47;0.47;;;;;;;;;;5053986;28;20209;-87
2022/09/06 07:09:18;;;;;;;0.28;0.28;;;;;;;;;;5053701;28;20233;-86
2022/09/06 07:11:45;;;;;;;0.28;0.28;;;;;;;;;;5053771;28;20666;-87
2022/09/06 07:14:12;;;;;;;0.63;0.63;;;;;;;;;;5053792;28;20229;-87
2022/09/06 07:16:39;;;;;;;0.30;0.30;;;;;;;;;;5054034;28;20186;-86
2022/09/06 07:19:06;;;;;;;0.43;0.43;;;;;;;;;;5054088;28;20245;-87
2022/09/06 07:21:33;;;;;;;0.35;0.32;;;;;;;;;;5053577;28;20199;-86
2022/09/06 07:24:00;;;;;;;0.30;0.30;;;;;;;;;;5053049;28;20233;-86
2022/09/06 07:26:30;;;;;;;0.40;0.40;;;;;;;;;;5053924;28;20205;-86
2022/09/06 07:28:58;;;;;;;0.20;0.20;;;;;;;;;;5053199;28;20206;-86
2022/09/06 07:31:25;;;;;;;0.20;0.20;;;;;;;;;;5053636;28;20213;-87
2022/09/06 07:33:52;;;;;;;0.30;0.30;;;;;;;;;;5053162;28;20206;-86
2022/09/06 07:36:19;;;;;;;0.30;0.30;;;;;;;;;;5053914;28;20210;-86
2022/09/06 07:38:48;;;;;;;0.30;0.30;;;;;;;;;;5053368;28;20213;-87
2022/09/06 07:41:16;;;;;;;0.20;0.20;;;;;;;;;;5053627;28;20210;-87
2022/09/06 07:43:44;;;;;;;0.50;0.50;;;;;;;;;;5053570;28;20209;-86
2022/09/06 07:46:12;;;;;;;0.20;0.20;;;;;;;;;;5053304;28;20324;-87
2022/09/06 07:48:40;;;;;;;0.52;0.52;;;;;;;;;;5053307;28;20213;-86
2022/09/06 07:51:10;;;;;;;0.30;0.30;;;;;;;;;;5066401;28;20232;-87
2022/09/06 07:53:39;;;;;;;0.30;0.30;;;;;;;;;;5089981;28;20202;-86
2022/09/06 07:56:07;;;;;;;0.30;0.30;;;;;;;;;;5072105;28;20233;-86
2022/09/06 07:58:34;;;;;;;0.20;0.20;;;;;;;;;;5073137;28;20228;-87
2022/09/06 08:01:16;;;;;;;0.50;0.50;;;;;;;;;;5084547;28;20255;-87
2022/09/06 08:03:43;;;;;;;0.20;0.20;;;;;;;;;;5093302;28;20204;-86
2022/09/06 08:06:10;;;;;;;0.45;0.45;;;;;;;;;;5089397;27;20229;-87
2022/09/06 08:08:38;;;;;;;0.30;0.30;;;;;;;;;;5072743;28;20182;-87
2022/09/06 08:11:06;;;;;;;0.25;0.25;;;;;;;;;;5071900;28;20237;-86
2022/09/06 08:13:33;;;;;;;0.30;0.30;;;;;;;;;;5073118;28;20615;-85
2022/09/06 08:16:00;;;;;;;0.20;0.20;;;;;;;;;;5072532;28;20241;-86
2022/09/06 08:18:29;;;;;;;0.40;0.40;;;;;;;;;;5072466;28;20213;-86
2022/09/06 08:20:56;;;;;;;0.52;0.52;;;;;;;;;;5071550;28;20248;-85
2022/09/06 08:23:23;;;;;;;0.45;0.45;;;;;;;;;;5072612;28;20216;-86
2022/09/06 08:25:57;;;;;;;0.30;0.30;;;;;;;;;;5071657;28;20237;-85
2022/09/06 08:28:24;;;;;;;0.35;0.35;;;;;;;;;;5072087;28;20206;-86
2022/09/06 08:30:51;;;;;;;0.25;0.25;;;;;;;;;;5071649;28;20315;-86
2022/09/06 08:33:20;;;;;;;0.20;0.20;;;;;;;;;;5072117;28;20205;-86
2022/09/06 08:35:56;;;;;;;0.22;0.22;;;;;;;;;;5071708;28;20682;-86
2022/09/06 08:38:23;;;;;;;0.15;0.15;;;;;;;;;;5072441;28;20672;-85
2022/09/06 08:40:50;;;;;;;0.15;0.15;;;;;;;;;;5071607;28;20279;-85
2022/09/06 08:43:18;;;;;;;0.15;0.15;;;;;;;;;;5072432;28;20205;-85
2022/09/06 08:45:47;;;;;;;0.20;0.20;;;;;;;;;;5071418;28;20260;-85
2022/09/06 08:48:14;;;;;;;0.20;0.20;;;;;;;;;;5072027;28;20201;-85
2022/09/06 08:50:42;;;;;;;0.20;0.20;;;;;;;;;;5071646;28;20233;-85
2022/09/06 08:53:15;;;;;;;0.10;0.10;;;;;;;;;;5072041;28;20591;-85
2022/09/06 08:55:45;;;;;;;0.20;0.20;;;;;;;;;;5071547;28;20567;-85
2022/09/06 08:58:19;;;;;;;0.25;0.25;;;;;;;;;;5072266;28;20209;-87
2022/09/06 09:00:48;;;;;;;0.80;0.20;;;;;;;;;;5071427;28;20651;-86
2022/09/06 09:03:18;;;;;;;0.20;0.20;;;;;;;;;;5072443;28;20213;-87
2022/09/06 09:05:48;;;;;;;0.25;0.25;;;;;;;;;;5072125;28;20240;-86
2022/09/06 09:08:22;;;;;;;0.10;0.10;;;;;;;;;;5071668;28;20190;-87
2022/09/06 09:10:49;;;;;;;0.63;0.30;;;;;;;;;;5071407;28;20236;-86
2022/09/06 09:13:21;;;;;;;0.10;0.10;;;;;;;;;;5072948;28;20220;-87
2022/09/06 09:15:48;;;;;;;0.20;0.20;;;;;;;;;;5071767;28;20229;-87
2022/09/06 09:18:18;;;;;;;1.17;0.30;;;;;;;;;;5072200;28;20243;-87
2022/09/06 09:20:45;;;;;;;0.08;0.08;;;;;;;;;;5071693;28;20233;-87
2022/09/06 09:23:12;;;;;;;0.10;0.10;;;;;;;;;;5072291;28;20208;-85
2022/09/06 09:25:40;;;;;;;0.13;0.13;;;;;;;;;;5072243;28;20242;-85
2022/09/06 09:28:12;;;;;;;0.30;0.30;;;;;;;;;;5072849;28;20213;-84
2022/09/06 09:30:46;;;;;;;0.10;0.10;;;;;;;;;;5071969;28;20593;-86
2022/09/06 09:33:21;;;;;;;0.30;0.30;;;;;;;;;;5071116;28;20205;-83
2022/09/06 09:35:48;;;;;;;0.03;0.03;;;;;;;;;;5071618;28;20239;-85
2022/09/06 09:38:20;;;;;;;0.13;0.10;;;;;;;;;;5072007;28;20565;-84
2022/09/06 09:40:51;;;;;;;0.10;0.10;;;;;;;;;;5071369;28;20340;-86
2022/09/06 09:43:21;;;;;;;0.10;0.10;;;;;;;;;;5071771;28;20618;-85
2022/09/06 09:45:57;;;;;;;0.20;0.20;;;;;;;;;;5070708;28;20233;-84
2022/09/06 09:48:26;;;;;;;0.10;0.10;;;;;;;;;;5071902;28;20196;-85
2022/09/06 09:50:54;;;;;;;0.30;0.25;;;;;;;;;;5071129;28;20229;-85
2022/09/06 09:53:22;;;;;;;0.20;0.20;;;;;;;;;;5071942;28;20205;-85
2022/09/06 09:55:55;;;;;;;0.28;0.28;;;;;;;;;;5071475;28;20241;-86
2022/09/06 09:58:29;;;;;;;1.00;0.40;;;;;;;;;;5077692;28;20216;-85
2022/09/06 10:01:10;;;;;;;0.20;0.20;;;;;;;;;;5084284;28;20461;-85
2022/09/06 10:03:37;;;;;;;0.10;0.10;;;;;;;;;;5072917;28;20201;-85
2022/09/06 10:06:05;;;;;;;0.10;0.10;;;;;;;;;;5055344;28;20641;-85
2022/09/06 10:08:34;;;;;;;0.28;0.28;;;;;;;;;;5052182;28;20210;-85
2022/09/06 10:11:03;;;;;;;0.30;0.30;;;;;;;;;;5050701;28;20317;-85
2022/09/06 10:13:32;;;;;;;0.10;0.10;;;;;;;;;;5051314;28;20206;-85
2022/09/06 10:16:01;;;;;;;0.20;0.20;;;;;;;;;;5057110;28;20229;-84
2022/09/06 10:18:30;;;;;;;0.20;0.20;;;;;;;;;;5052082;28;20293;-83
2022/09/06 10:20:58;;;;;;;0.22;0.22;;;;;;;;;;5053985;28;20242;-83
2022/09/06 10:23:29;;;;;;;0.25;0.25;;;;;;;;;;5055694;28;20201;-84
2022/09/06 10:26:01;;;;;;;0.10;0.10;;;;;;;;;;5055166;28;20230;-85
2022/09/06 10:28:31;;;;;;;0.50;0.30;;;;;;;;;;5057997;28;20210;-85
2022/09/06 10:31:10;;;;;;;0.10;0.10;;;;;;;;;;5053964;28;20298;-85
2022/09/06 10:33:39;;;;;;;0.30;0.13;;;;;;;;;;5065765;28;20198;-85
2022/09/06 10:36:08;;;;;;;0.10;0.10;;;;;;;;;;5073660;28;20230;-85
2022/09/06 10:38:39;;;;;;;0.10;0.10;;;;;;;;;;5073774;28;20225;-84
2022/09/06 10:41:16;;;;;;;0.10;0.10;;;;;;;;;;5059857;28;20241;-84
2022/09/06 10:43:48;;;;;;;0.17;0.17;;;;;;;;;;5074558;28;20209;-85
2022/09/06 10:46:17;;;;;;;0.20;0.20;;;;;;;;;;5073646;28;20241;-85
2022/09/06 10:48:45;;;;;;;0.20;0.20;;;;;;;;;;5073926;28;20705;-85
2022/09/06 10:51:17;;;;;;;0.10;0.10;;;;;;;;;;5073979;28;20701;-86
2022/09/06 10:53:46;;;;;;;0.10;0.10;;;;;;;;;;5074462;28;20239;-85
2022/09/06 10:56:16;;;;;;;0.10;0.10;;;;;;;;;;5074014;28;20224;-87
2022/09/06 10:58:48;;;;;;;0.20;0.20;;;;;;;;;;5074410;28;20204;-86
2022/09/06 11:01:20;;;;;;;0.10;0.10;;;;;;;;;;5073847;28;20608;-85
2022/09/06 11:03:47;;;;;;;0.10;0.10;;;;;;;;;;5073790;28;20212;-85
2022/09/06 11:06:14;;;;;;;0.10;0.10;;;;;;;;;;5074144;28;20252;-85
2022/09/06 11:08:44;;;;;;;0.22;0.22;;;;;;;;;;5074632;28;20208;-87
2022/09/06 11:11:14;;;;;;;0.08;0.08;;;;;;;;;;5073645;28;20212;-87
2022/09/06 11:13:41;;;;;;;0.10;0.10;;;;;;;;;;5074624;28;20209;-88
2022/09/06 11:16:12;;;;;;;0.10;0.10;;;;;;;;;;5073354;28;20229;-87
2022/09/06 11:18:41;;;;;;;0.10;0.10;;;;;;;;;;5074317;28;20554;-87
2022/09/06 11:21:18;;;;;;;0.57;0.57;;;;;;;;;;5073467;28;20236;-87
2022/09/06 11:23:48;;;;;;;0.00;0.00;;;;;;;;;;5074522;28;20212;-86
2022/09/06 11:26:29;;;;;;;0.20;0.20;;;;;;;;;;5074111;28;20236;-86
2022/09/06 11:28:57;;;;;;;0.10;0.10;;;;;;;;;;5074028;28;20185;-87
2022/09/06 11:31:27;;;;;;;0.20;0.20;;;;;;;;;;5073171;28;20205;-87
2022/09/06 11:34:08;;;;;;;0.05;0.03;;;;;;;;;;5073068;28;20208;-87
2022/09/06 11:36:36;;;;;;;0.30;0.30;;;;;;;;;;5074260;28;20185;-87
2022/09/06 11:39:04;;;;;;;0.25;0.25;;;;;;;;;;5074151;28;20242;-86
2022/09/06 11:41:33;;;;;;;0.35;0.20;;;;;;;;;;5073274;28;20204;-87
2022/09/06 11:44:00;;;;;;;0.28;0.28;;;;;;;;;;5077055;28;20609;-87
2022/09/06 11:46:47;;;;;;;0.55;0.20;;;;;;;;;;5073877;28;20235;-85
2022/09/06 11:49:29;;;;;;;0.10;0.10;;;;;;;;;;5076218;28;20285;-86
2022/09/06 11:51:58;;;;;;;0.17;0.17;;;;;;;;;;5057174;28;20205;-87
2022/09/06 11:54:28;;;;;;;0.43;0.30;;;;;;;;;;5071617;28;20239;-87
2022/09/06 11:56:57;;;;;;;0.03;0.03;;;;;;;;;;5073081;28;20200;-87
2022/09/06 11:59:34;;;;;;;0.17;0.17;;;;;;;;;;5072653;28;20235;-88
2022/09/06 12:02:02;;;;;;;0.10;0.10;;;;;;;;;;5072580;28;20215;-88
2022/09/06 12:04:48;;;;;;;0.10;0.10;;;;;;;;;;5073812;28;20730;-87
2022/09/06 12:07:16;;;;;;;0.45;0.40;;;;;;;;;;5073135;28;20220;-87
2022/09/06 12:09:45;;;;;;;0.10;0.10;;;;;;;;;;5072562;28;20229;-87
2022/09/06 12:12:12;;;;;;;0.08;0.08;;;;;;;;;;5072458;28;20209;-87
2022/09/06 12:14:40;;;;;;;0.10;0.10;;;;;;;;;;5072254;28;20247;-87
2022/09/06 12:17:19;;;;;;;0.25;0.25;;;;;;;;;;5073153;28;20216;-88
2022/09/06 12:19:48;;;;;;;0.05;0.05;;;;;;;;;;5072460;28;20728;-88
2022/09/06 12:22:34;;;;;;;0.17;0.17;;;;;;;;;;5072250;28;20208;-86
2022/09/06 12:25:04;;;;;;;4.85;0.85;;;;;;;;;;5071555;28;20715;-88
2022/09/06 12:27:32;;;;;;;0.10;0.10;;;;;;;;;;5072515;28;20213;-88
2022/09/06 12:30:00;;;;;;;0.20;0.20;;;;;;;;;;5070863;28;20229;-88
2022/09/06 12:32:29;;;;;;;0.10;0.10;;;;;;;;;;5071256;28;20211;-88
2022/09/06 12:34:57;;;;;;;0.20;0.20;;;;;;;;;;5071378;28;20241;-88
2022/09/06 12:37:36;;;;;;;0.10;0.10;;;;;;;;;;5071630;28;20204;-87
2022/09/06 12:40:05;;;;;;;0.10;0.10;;;;;;;;;;5070441;28;20243;-86
2022/09/06 12:42:34;;;;;;;0.13;0.13;;;;;;;;;;5070967;28;20692;-87
2022/09/06 12:45:03;;;;;;;0.20;0.20;;;;;;;;;;5070868;28;20244;-86
2022/09/06 12:47:33;;;;;;;0.40;0.40;;;;;;;;;;5071015;28;20221;-87
2022/09/06 12:50:07;;;;;;;0.08;0.08;;;;;;;;;;5070872;28;20768;-88
2022/09/06 12:52:34;;;;;;;0.30;0.30;;;;;;;;;;5073532;28;20200;-88
2022/09/06 12:55:01;;;;;;;0.15;0.15;;;;;;;;;;5072626;28;20286;-86
2022/09/06 12:57:29;;;;;;;0.20;0.20;;;;;;;;;;5072207;28;20688;-87
2022/09/06 12:59:57;;;;;;;0.40;0.40;;;;;;;;;;5071140;28;20708;-88
2022/09/06 13:02:27;;;;;;;0.20;0.20;;;;;;;;;;5072077;28;20197;-88
2022/09/06 13:04:57;;;;;;;0.20;0.20;;;;;;;;;;5071900;28;20244;-87
2022/09/06 13:07:25;;;;;;;0.30;0.30;;;;;;;;;;5072242;28;20224;-87
2022/09/06 13:09:54;;;;;;;0.10;0.10;;;;;;;;;;5072401;28;20718;-87
2022/09/06 13:12:25;;;;;;;0.17;0.17;;;;;;;;;;5072611;28;20220;-87
2022/09/06 13:14:54;;;;;;;0.20;0.20;;;;;;;;;;5071686;28;20243;-86
2022/09/06 13:17:25;;;;;;;0.25;0.05;;;;;;;;;;5072310;28;20208;-87
2022/09/06 13:19:52;;;;;;;0.20;0.20;;;;;;;;;;5072061;28;20260;-87
2022/09/06 13:22:34;;;;;;;0.10;0.10;;;;;;;;;;5071628;28;20234;-87
2022/09/06 13:25:01;;;;;;;0.20;0.20;;;;;;;;;;5071334;28;20613;-86
2022/09/06 13:27:34;;;;;;;0.15;0.15;;;;;;;;;;5072148;28;20232;-86
2022/09/06 13:30:04;;;;;;;0.15;0.15;;;;;;;;;;5071956;28;20236;-87
2022/09/06 13:32:31;;;;;;;0.10;0.10;;;;;;;;;;5071881;28;20192;-87
2022/09/06 13:34:59;;;;;;;0.20;0.20;;;;;;;;;;5071671;28;20237;-86
2022/09/06 13:37:27;;;;;;;0.00;0.00;;;;;;;;;;5071991;28;20295;-87
2022/09/06 13:39:56;;;;;;;0.10;0.10;;;;;;;;;;5073882;28;20258;-86
2022/09/06 13:42:27;;;;;;;0.20;0.20;;;;;;;;;;5072629;28;20268;-86
2022/09/06 13:44:55;;;;;;;0.00;0.00;;;;;;;;;;5071502;28;20311;-88
2022/09/06 13:47:24;;;;;;;0.25;0.25;;;;;;;;;;5071844;28;20232;-87
2022/09/06 13:49:53;;;;;;;0.20;0.20;;;;;;;;;;5071528;28;20232;-87
2022/09/06 13:52:21;;;;;;;0.20;0.20;;;;;;;;;;5071871;28;20201;-87
2022/09/06 13:54:48;;;;;;;0.45;0.45;;;;;;;;;;5074241;28;20309;-87
2022/09/06 13:57:15;;;;;;;0.20;0.20;;;;;;;;;;5075909;28;20323;-87
2022/09/06 13:59:42;;;;;;;0.00;0.00;;;;;;;;;;5075532;28;20282;-87
2022/09/06 14:02:10;;;;;;;0.20;0.20;;;;;;;;;;5076114;28;20276;-87
2022/09/06 14:04:39;;;;;;;0.10;0.10;;;;;;;;;;5075014;28;20605;-87
2022/09/06 14:07:06;;;;;;;0.00;0.00;;;;;;;;;;5075573;28;20228;-87
2022/09/06 14:09:33;;;;;;;0.47;0.20;;;;;;;;;;5075302;28;20739;-88
2022/09/06 14:12:05;;;;;;;0.10;0.10;;;;;;;;;;5075729;28;20240;-88
2022/09/06 14:14:32;;;;;;;0.30;0.30;;;;;;;;;;5088984;22;20236;-88
2022/09/06 14:16:59;;;;;;;0.10;0.10;;;;;;;;;;5074832;28;20208;-89
2022/09/06 14:19:27;;;;;;;0.10;0.10;;;;;;;;;;5075393;28;20615;-88
2022/09/06 14:21:56;;;;;;;0.17;0.17;;;;;;;;;;5075696;28;20652;-88
2022/09/06 14:24:23;;;;;;;0.30;0.30;;;;;;;;;;5075699;28;20627;-88
2022/09/06 14:26:50;;;;;;;0.10;0.10;;;;;;;;;;5077889;28;20224;-89
2022/09/06 14:29:17;;;;;;;0.20;0.20;;;;;;;;;;5076325;28;20653;-88
2022/09/06 14:31:44;;;;;;;0.10;0.10;;;;;;;;;;5075935;28;20200;-88
2022/09/06 14:34:11;;;;;;;0.35;0.35;;;;;;;;;;5075389;28;20240;-88
2022/09/06 14:36:39;;;;;;;0.20;0.20;;;;;;;;;;5075614;28;20229;-88
2022/09/06 14:39:07;;;;;;;0.20;0.20;;;;;;;;;;5075183;28;20244;-88
2022/09/06 14:41:34;;;;;;;0.10;0.10;;;;;;;;;;5075596;28;20550;-89
2022/09/06 14:44:01;;;;;;;0.13;0.13;;;;;;;;;;5075161;28;20231;-87
2022/09/06 14:46:29;;;;;;;0.08;0.08;;;;;;;;;;5075830;28;20346;-88
2022/09/06 14:48:57;;;;;;;0.30;0.10;;;;;;;;;;5075553;28;20288;-88
2022/09/06 14:51:24;;;;;;;0.40;0.40;;;;;;;;;;5075224;28;20208;-88
2022/09/06 14:53:52;;;;;;;0.20;0.20;;;;;;;;;;5075027;28;20565;-88
2022/09/06 14:56:21;;;;;;;0.30;0.30;;;;;;;;;;5074957;28;20595;-88